Puerto Rico, Texas
Current Conditions -  °F | °C
As of 2:15 AM on Tuesday 21 Oct 2014 (Local Time) from KEBG Reporting Station
Haze Haze  
Wind Chill: 70°   Ceiling: Unl
Heat Index: 70°   Visibility: 3mi
Dew Point: 67°   Wind: 5mph
Humidity: 92%   Direction: 30°NNE
Pressure: 29.94"   Gusts: NA
Location:  26.6163°N, 98.1884°W
Report Text: KEBG 210715Z AUTO 03004KT 3SM BR CLR 21/20 A2994 RMK AO2 T02100196
Loading
Personal Weather Stations






























Interactive Weather Map
Tropical Storm Tracking
New forecast layout! Learn more

10-Day Weather Forecast

Advertisements
Track Severe Weather on mobile